createdAt,value
2018-07-14T00:02:19.390Z,100470.73
2018-07-14T00:04:46.288Z,100475.16
2018-07-14T00:07:13.224Z,100478.00
2018-07-14T00:09:40.141Z,100481.02
2018-07-14T00:12:07.059Z,100478.55
2018-07-14T00:14:33.942Z,100476.70
2018-07-14T00:17:00.807Z,100469.70
2018-07-14T00:19:27.718Z,100469.50
2018-07-14T00:21:54.645Z,100472.27
2018-07-14T00:24:21.623Z,100465.13
2018-07-14T00:26:48.513Z,100467.07
2018-07-14T00:29:15.426Z,100458.59
2018-07-14T00:31:42.299Z,100459.34
2018-07-14T00:34:09.198Z,100466.56
2018-07-14T00:36:36.105Z,100470.25
2018-07-14T00:39:03.986Z,100466.69
2018-07-14T00:41:30.945Z,100468.51
2018-07-14T00:43:57.892Z,100474.11
2018-07-14T00:46:24.774Z,100471.71
2018-07-14T00:48:52.654Z,100468.95
2018-07-14T00:51:19.574Z,100470.63
2018-07-14T00:53:46.516Z,100472.84
2018-07-14T00:56:13.395Z,100469.60
2018-07-14T00:58:40.280Z,100470.83
2018-07-14T01:01:07.164Z,100476.86
2018-07-14T01:03:34.051Z,100476.39
2018-07-14T01:06:00.925Z,100474.61
2018-07-14T01:08:27.832Z,100471.16
2018-07-14T01:10:54.713Z,100472.39
2018-07-14T01:13:21.601Z,100480.56
2018-07-14T01:15:48.590Z,100478.52
2018-07-14T01:18:15.473Z,100474.94
2018-07-14T01:20:42.377Z,100481.03
2018-07-14T01:23:09.288Z,100478.45
2018-07-14T01:25:37.082Z,100473.65
2018-07-14T01:28:04.081Z,100477.39
2018-07-14T01:30:30.958Z,100474.02
2018-07-14T01:32:58.010Z,100476.81
2018-07-14T01:35:24.909Z,100476.41
2018-07-14T01:37:51.888Z,100471.14
2018-07-14T01:40:18.827Z,100476.42
2018-07-14T01:42:45.728Z,100473.12
2018-07-14T01:45:12.648Z,100475.02
2018-07-14T01:47:39.554Z,100475.52
2018-07-14T01:50:06.458Z,100475.56
2018-07-14T01:52:33.351Z,100470.66
2018-07-14T01:55:00.243Z,100461.10
2018-07-14T01:57:27.132Z,100468.94
2018-07-14T01:59:54.022Z,100460.17
2018-07-14T02:02:20.898Z,100462.12
2018-07-14T02:04:47.818Z,100465.76
2018-07-14T02:07:14.756Z,100464.69
2018-07-14T02:09:41.690Z,100469.50
2018-07-14T02:12:08.731Z,100474.58
2018-07-14T02:14:35.694Z,100480.63
2018-07-14T02:17:02.623Z,100473.28
2018-07-14T02:19:29.519Z,100472.16
2018-07-14T02:21:56.455Z,100473.47
2018-07-14T02:24:23.421Z,100472.08
2018-07-14T02:26:50.314Z,100465.81
2018-07-14T02:29:17.324Z,100466.69
2018-07-14T02:31:44.276Z,100468.58
2018-07-14T02:34:11.276Z,100466.00
2018-07-14T02:36:38.159Z,100464.00
2018-07-14T02:39:05.515Z,100465.20
2018-07-14T02:41:32.407Z,100463.38
2018-07-14T02:43:59.339Z,100464.23
2018-07-14T02:46:26.279Z,100470.83
2018-07-14T02:48:53.208Z,100461.98
2018-07-14T02:51:20.092Z,100463.44
2018-07-14T02:53:47.019Z,100461.16
2018-07-14T02:56:13.911Z,100458.68
2018-07-14T02:58:40.819Z,100456.73
2018-07-14T03:01:07.712Z,100460.46
2018-07-14T03:03:34.611Z,100466.12
2018-07-14T03:06:01.513Z,100469.84
2018-07-14T03:08:28.425Z,100465.61
2018-07-14T03:10:55.315Z,100463.66
2018-07-14T03:13:22.289Z,100468.94
2018-07-14T03:15:49.187Z,100469.25
2018-07-14T03:18:16.068Z,100468.25
2018-07-14T03:20:42.964Z,100466.74
2018-07-14T03:23:09.867Z,100467.25
2018-07-14T03:25:36.803Z,100465.43
2018-07-14T03:28:03.718Z,100476.36
2018-07-14T03:30:30.693Z,100477.41
2018-07-14T03:32:57.596Z,100465.70
2018-07-14T03:35:24.492Z,100472.36
2018-07-14T03:37:51.412Z,100465.04
2018-07-14T03:40:18.315Z,100467.80
2018-07-14T03:42:45.220Z,100471.88
2018-07-14T03:45:12.110Z,100482.48
2018-07-14T03:47:39.015Z,100481.33
2018-07-14T03:50:05.952Z,100472.99
2018-07-14T03:52:32.851Z,100475.61
2018-07-14T03:54:59.773Z,100474.59
2018-07-14T03:57:26.669Z,100475.81
2018-07-14T03:59:53.578Z,100480.19
2018-07-14T04:02:20.523Z,100475.54
2018-07-14T04:04:47.426Z,100480.20
2018-07-14T04:07:14.351Z,100481.21
2018-07-14T04:09:41.246Z,100481.58
2018-07-14T04:12:08.169Z,100484.03
2018-07-14T04:14:35.076Z,100482.64
2018-07-14T04:17:01.968Z,100486.94
2018-07-14T04:19:28.877Z,100487.21
2018-07-14T04:21:55.768Z,100481.25
2018-07-14T04:24:22.677Z,100484.62
2018-07-14T04:26:49.641Z,100490.97
2018-07-14T04:29:16.533Z,100483.55
2018-07-14T04:31:43.444Z,100483.24
2018-07-14T04:34:10.391Z,100482.43
2018-07-14T04:36:37.328Z,100481.92
2018-07-14T04:39:04.596Z,100485.16
2018-07-14T04:41:31.575Z,100481.21
2018-07-14T04:43:58.786Z,100484.04
2018-07-14T04:46:25.379Z,100476.17
2018-07-14T04:48:52.274Z,100474.14
2018-07-14T04:51:19.173Z,100467.64
2018-07-14T04:53:46.077Z,100475.58
2018-07-14T04:56:12.976Z,100475.80
2018-07-14T04:58:39.911Z,100482.39
2018-07-14T05:01:06.814Z,100484.33
2018-07-14T05:03:33.715Z,100479.38
2018-07-14T05:06:00.605Z,100480.77
2018-07-14T05:08:27.505Z,100478.45
2018-07-14T05:10:54.415Z,100475.38
2018-07-14T05:13:21.295Z,100481.38
2018-07-14T05:15:48.180Z,100481.07
2018-07-14T05:18:15.095Z,100475.67
2018-07-14T05:20:41.989Z,100472.94
2018-07-14T05:23:08.913Z,100484.19
2018-07-14T05:25:35.818Z,100475.95
2018-07-14T05:28:02.706Z,100478.66
2018-07-14T05:30:29.582Z,100474.56
2018-07-14T05:32:56.465Z,100476.19
2018-07-14T05:35:23.347Z,100482.33
2018-07-14T05:37:50.535Z,100481.37
2018-07-14T05:40:17.443Z,100487.27
2018-07-14T05:42:44.636Z,100486.16
2018-07-14T05:45:11.581Z,100491.29
2018-07-14T05:47:39.248Z,100494.12
2018-07-14T05:50:06.151Z,100495.06
2018-07-14T05:52:33.045Z,100501.00
2018-07-14T05:54:59.926Z,100499.10
2018-07-14T05:57:26.820Z,100505.09
2018-07-14T05:59:53.705Z,100504.66
2018-07-14T06:02:20.621Z,100510.50
2018-07-14T06:04:47.588Z,100511.66
2018-07-14T06:07:14.522Z,100517.04
2018-07-14T06:09:41.511Z,100510.91
2018-07-14T06:12:08.481Z,100507.00
2018-07-14T06:14:35.457Z,100500.26
2018-07-14T06:17:04.465Z,100503.83
2018-07-14T06:19:31.516Z,100497.94
2018-07-14T06:22:00.311Z,100497.02
2018-07-14T06:24:27.290Z,100501.19
2018-07-14T06:26:57.283Z,100499.42
2018-07-14T06:29:24.205Z,100509.81
2018-07-14T06:31:51.249Z,100508.08
2018-07-14T06:34:18.261Z,100506.34
2018-07-14T06:36:45.268Z,100510.67
2018-07-14T06:39:12.203Z,100510.86
2018-07-14T06:41:39.211Z,100515.55
2018-07-14T06:44:06.145Z,100513.42
2018-07-14T06:46:33.843Z,100512.31
2018-07-14T06:49:00.806Z,100517.63
2018-07-14T06:51:27.792Z,100511.27
2018-07-14T06:53:55.888Z,100509.09
2018-07-14T06:56:22.818Z,100512.75
2018-07-14T06:58:50.352Z,100515.20
2018-07-14T07:01:17.283Z,100516.02
2018-07-14T07:03:44.197Z,100515.16
2018-07-14T07:06:11.157Z,100519.30
2018-07-14T07:08:38.102Z,100512.13
2018-07-14T07:11:05.045Z,100515.58
2018-07-14T07:13:31.977Z,100520.48
2018-07-14T07:15:58.875Z,100519.20
2018-07-14T07:18:25.768Z,100519.34
2018-07-14T07:20:52.684Z,100517.44
2018-07-14T07:23:19.566Z,100516.62
2018-07-14T07:25:46.468Z,100513.72
2018-07-14T07:28:13.395Z,100520.06
2018-07-14T07:30:40.364Z,100511.82
2018-07-14T07:33:07.324Z,100513.33
2018-07-14T07:35:34.261Z,100510.80
2018-07-14T07:38:01.168Z,100509.52
2018-07-14T07:40:28.068Z,100516.54
2018-07-14T07:42:54.976Z,100510.41
2018-07-14T07:45:22.882Z,100511.20
2018-07-14T07:47:50.379Z,100509.34
2018-07-14T07:50:17.303Z,100503.55
2018-07-14T07:52:44.180Z,100509.00
2018-07-14T07:55:11.171Z,100511.74
2018-07-14T07:57:38.075Z,100508.59
2018-07-14T08:00:05.080Z,100502.56
2018-07-14T08:02:31.980Z,100500.93
2018-07-14T08:04:58.883Z,100504.82
2018-07-14T08:07:25.843Z,100507.45
2018-07-14T08:09:52.735Z,100501.13
2018-07-14T08:12:19.626Z,100508.15
2018-07-14T08:14:46.532Z,100506.95
2018-07-14T08:17:13.460Z,100509.56
2018-07-14T08:19:40.360Z,100508.19
2018-07-14T08:22:07.436Z,100507.13
2018-07-14T08:24:34.345Z,100505.15
2018-07-14T08:27:01.268Z,100508.41
2018-07-14T08:29:28.179Z,100505.67
2018-07-14T08:31:55.071Z,100494.03
2018-07-14T08:34:22.985Z,100508.91
2018-07-14T08:36:49.876Z,100501.95
2018-07-14T08:39:16.804Z,100500.69
2018-07-14T08:41:43.715Z,100495.45
2018-07-14T08:44:10.696Z,100502.33
2018-07-14T08:46:37.605Z,100494.03
2018-07-14T08:49:04.579Z,100497.41
2018-07-14T08:51:31.525Z,100501.31
2018-07-14T08:53:58.420Z,100500.35
2018-07-14T08:56:25.336Z,100498.20
2018-07-14T08:58:52.239Z,100501.35
2018-07-14T09:01:19.146Z,100499.13
2018-07-14T09:03:46.088Z,100491.66
2018-07-14T09:06:13.025Z,100495.08
2018-07-14T09:08:39.940Z,100493.88
2018-07-14T09:11:06.859Z,100488.45
2018-07-14T09:13:33.750Z,100482.84
2018-07-14T09:16:00.662Z,100486.66
2018-07-14T09:18:27.638Z,100490.40
2018-07-14T09:20:54.544Z,100475.96
2018-07-14T09:23:21.452Z,100486.75
2018-07-14T09:25:48.365Z,100483.61
2018-07-14T09:28:15.286Z,100483.79
2018-07-14T09:30:42.207Z,100481.95
2018-07-14T09:33:09.137Z,100481.02
2018-07-14T09:35:36.041Z,100475.59
2018-07-14T09:38:03.056Z,100476.80
2018-07-14T09:40:29.864Z,100473.00
2018-07-14T09:42:56.757Z,100469.77
2018-07-14T09:45:23.744Z,100467.05
2018-07-14T09:47:50.666Z,100462.58
2018-07-14T09:50:24.912Z,100467.20
2018-07-14T09:52:51.868Z,100470.40
2018-07-14T09:55:18.824Z,100472.80
2018-07-14T09:57:45.719Z,100458.42
2018-07-14T10:00:18.195Z,100456.78
2018-07-14T10:02:45.091Z,100455.24
2018-07-14T10:05:12.922Z,100450.17
2018-07-14T10:07:39.916Z,100443.71
2018-07-14T10:10:06.990Z,100445.76
2018-07-14T10:12:33.835Z,100446.78
2018-07-14T10:15:00.797Z,100447.17
2018-07-14T10:17:27.741Z,100442.49
2018-07-14T10:19:54.597Z,100438.55
2018-07-14T10:22:21.577Z,100433.28
2018-07-14T10:24:48.438Z,100423.63
2018-07-14T10:27:15.363Z,100428.17
2018-07-14T10:29:42.267Z,100428.20
2018-07-14T10:32:09.192Z,100439.03
2018-07-14T10:34:37.107Z,100437.61
2018-07-14T10:37:04.011Z,100437.03
2018-07-14T10:39:30.920Z,100427.92
2018-07-14T10:41:57.851Z,100415.59
2018-07-14T10:44:24.754Z,100428.45
2018-07-14T10:46:51.745Z,100419.59
2018-07-14T10:49:18.611Z,100410.75
2018-07-14T10:51:45.539Z,100412.37
2018-07-14T10:54:12.454Z,100408.62
2018-07-14T10:56:39.380Z,100406.41
2018-07-14T10:59:06.263Z,100414.51
2018-07-14T11:01:33.162Z,100413.16
2018-07-14T11:04:00.063Z,100407.28
2018-07-14T11:06:28.935Z,100402.45
2018-07-14T11:08:55.852Z,100405.10
2018-07-14T11:11:22.790Z,100413.64
2018-07-14T11:13:49.675Z,100401.92
2018-07-14T11:16:16.567Z,100396.24
2018-07-14T11:18:44.419Z,100391.69
2018-07-14T11:21:11.330Z,100388.70
2018-07-14T11:23:38.281Z,100388.41
2018-07-14T11:26:05.120Z,100375.58
2018-07-14T11:28:32.019Z,100384.47
2018-07-14T11:30:59.056Z,100373.42
2018-07-14T11:33:25.982Z,100382.20
2018-07-14T11:35:52.911Z,100380.06
2018-07-14T11:38:19.808Z,100379.12
2018-07-14T11:40:46.734Z,100371.94
2018-07-14T11:43:13.640Z,100380.71
2018-07-14T11:45:40.544Z,100374.22
2018-07-14T11:48:07.428Z,100359.95
2018-07-14T11:50:34.330Z,100363.27
2018-07-14T11:53:01.247Z,100360.11
2018-07-14T11:55:28.163Z,100361.72
2018-07-14T11:57:55.102Z,100354.56
2018-07-14T12:00:22.009Z,100358.48
2018-07-14T12:02:48.912Z,100349.05
2018-07-14T12:05:15.840Z,100347.70
2018-07-14T12:07:42.742Z,100339.13
2018-07-14T12:10:09.670Z,100333.47
2018-07-14T12:12:36.599Z,100338.97
2018-07-14T12:15:03.519Z,100329.27
2018-07-14T12:17:30.411Z,100318.41
2018-07-14T12:19:57.334Z,100325.13
2018-07-14T12:22:24.319Z,100321.59
2018-07-14T12:24:51.190Z,100322.06
2018-07-14T12:27:18.111Z,100329.20
2018-07-14T12:29:45.026Z,100320.30
2018-07-14T12:32:11.938Z,100323.14
2018-07-14T12:34:38.830Z,100315.41
2018-07-14T12:37:06.027Z,100327.44
2018-07-14T12:39:32.935Z,100311.68
2018-07-14T12:41:59.835Z,100327.16
2018-07-14T12:44:26.757Z,100310.31
2018-07-14T12:46:53.649Z,100310.60
2018-07-14T12:49:20.540Z,100308.43
2018-07-14T12:51:47.442Z,100311.65
2018-07-14T12:54:14.359Z,100308.61
2018-07-14T12:56:41.258Z,100303.14
2018-07-14T12:59:08.190Z,100307.12
2018-07-14T13:01:35.106Z,100299.86
2018-07-14T13:04:02.047Z,100299.06
2018-07-14T13:06:28.989Z,100298.97
2018-07-14T13:08:55.829Z,100296.73
2018-07-14T13:11:22.715Z,100292.23
2018-07-14T13:13:49.600Z,100280.41
2018-07-14T13:16:16.545Z,100288.86
2018-07-14T13:18:43.697Z,100290.67
2018-07-14T13:21:10.625Z,100279.87
2018-07-14T13:23:37.540Z,100278.72
2018-07-14T13:26:04.432Z,100274.05
2018-07-14T13:28:31.321Z,100271.33
2018-07-14T13:30:58.218Z,100273.47
2018-07-14T13:33:25.130Z,100260.98
2018-07-14T13:35:52.029Z,100256.14
2018-07-14T13:38:18.948Z,100249.01
2018-07-14T13:40:45.853Z,100244.77
2018-07-14T13:43:12.753Z,100252.83
2018-07-14T13:45:39.687Z,100251.47
2018-07-14T13:48:06.576Z,100249.83
2018-07-14T13:50:33.452Z,100252.94
2018-07-14T13:53:00.368Z,100254.33
2018-07-14T13:55:27.292Z,100241.58
2018-07-14T13:57:54.211Z,100240.39
2018-07-14T14:00:21.096Z,100241.80
2018-07-14T14:02:48.007Z,100237.70
2018-07-14T14:05:14.949Z,100235.47
2018-07-14T14:07:41.840Z,100238.98
2018-07-14T14:10:08.759Z,100241.11
2018-07-14T14:12:35.648Z,100227.64
2018-07-14T14:15:02.555Z,100229.12
2018-07-14T14:17:29.523Z,100230.97
2018-07-14T14:19:56.540Z,100236.18
2018-07-14T14:22:29.702Z,100234.98
2018-07-14T14:24:56.655Z,100229.75
2018-07-14T14:27:23.571Z,100228.13
2018-07-14T14:29:50.465Z,100231.48
2018-07-14T14:32:17.354Z,100228.98
2018-07-14T14:34:44.273Z,100212.66
2018-07-14T14:37:11.174Z,100215.80
2018-07-14T14:39:38.098Z,100208.52
2018-07-14T14:42:05.122Z,100206.75
2018-07-14T14:44:32.043Z,100216.59
2018-07-14T14:46:58.962Z,100216.72
2018-07-14T14:49:25.891Z,100214.97
2018-07-14T14:51:52.793Z,100203.66
2018-07-14T14:54:19.835Z,100209.22
2018-07-14T14:56:46.753Z,100214.34
2018-07-14T14:59:13.661Z,100202.89
2018-07-14T15:01:40.583Z,100201.19
2018-07-14T15:04:07.652Z,100200.62
2018-07-14T15:06:34.574Z,100192.67
2018-07-14T15:09:01.460Z,100194.68
2018-07-14T15:11:28.375Z,100182.31
2018-07-14T15:13:55.275Z,100175.72
2018-07-14T15:16:22.306Z,100175.78
2018-07-14T15:18:49.133Z,100171.24
2018-07-14T15:21:16.051Z,100177.14
2018-07-14T15:23:42.989Z,100173.51
2018-07-14T15:26:09.888Z,100178.75
2018-07-14T15:28:36.778Z,100171.37
2018-07-14T15:31:03.745Z,100177.13
2018-07-14T15:33:30.658Z,100175.53
2018-07-14T15:35:57.548Z,100167.95
2018-07-14T15:38:24.468Z,100173.38
2018-07-14T15:40:51.378Z,100167.45
2018-07-14T15:43:18.281Z,100161.78
2018-07-14T15:45:45.209Z,100154.70
2018-07-14T15:48:12.096Z,100158.72
2018-07-14T15:50:39.046Z,100165.41
2018-07-14T15:53:05.988Z,100160.08
2018-07-14T15:55:36.361Z,100156.71
2018-07-14T15:58:03.270Z,100159.94
2018-07-14T16:00:30.267Z,100155.31
2018-07-14T16:02:57.165Z,100164.38
2018-07-14T16:05:24.071Z,100154.96
2018-07-14T16:07:50.994Z,100154.89
2018-07-14T16:10:17.861Z,100158.95
2018-07-14T16:12:44.780Z,100153.77
2018-07-14T16:15:11.704Z,100153.23
2018-07-14T16:17:38.616Z,100157.44
2018-07-14T16:20:05.591Z,100157.27
2018-07-14T16:22:32.487Z,100155.36
2018-07-14T16:24:59.430Z,100159.09
2018-07-14T16:27:26.347Z,100147.94
2018-07-14T16:29:53.264Z,100151.84
2018-07-14T16:32:20.200Z,100153.98
2018-07-14T16:34:47.164Z,100158.50
2018-07-14T16:37:14.076Z,100151.66
2018-07-14T16:39:40.955Z,100157.11
2018-07-14T16:42:07.848Z,100145.27
2018-07-14T16:44:35.796Z,100143.82
2018-07-14T16:47:03.523Z,100147.31
2018-07-14T16:49:30.419Z,100148.75
2018-07-14T16:51:57.344Z,100144.29
2018-07-14T16:54:30.523Z,100136.60
2018-07-14T16:56:57.440Z,100129.08
2018-07-14T16:59:24.367Z,100138.59
2018-07-14T17:01:51.275Z,100133.87
2018-07-14T17:04:18.185Z,100132.72
2018-07-14T17:06:45.125Z,100125.48
2018-07-14T17:09:12.082Z,100134.68
2018-07-14T17:11:38.995Z,100127.59
2018-07-14T17:14:07.020Z,100127.99
2018-07-14T17:16:33.899Z,100127.89
2018-07-14T17:19:00.815Z,100129.76
2018-07-14T17:21:27.783Z,100132.59
2018-07-14T17:23:54.763Z,100128.84
2018-07-14T17:26:21.760Z,100122.05
2018-07-14T17:28:48.783Z,100127.96
2018-07-14T17:31:15.663Z,100126.13
2018-07-14T17:33:42.670Z,100118.45
2018-07-14T17:36:09.679Z,100121.81
2018-07-14T17:38:36.599Z,100115.60
2018-07-14T17:41:03.586Z,100119.25
2018-07-14T17:43:30.470Z,100122.31
2018-07-14T17:45:57.384Z,100120.38
2018-07-14T17:48:24.309Z,100122.27
2018-07-14T17:50:51.234Z,100120.12
2018-07-14T17:53:18.204Z,100125.20
2018-07-14T17:55:45.119Z,100124.41
2018-07-14T17:58:12.031Z,100127.35
2018-07-14T18:00:38.969Z,100120.64
2018-07-14T18:03:05.890Z,100126.55
2018-07-14T18:05:32.793Z,100116.36
2018-07-14T18:07:59.708Z,100122.52
2018-07-14T18:10:26.607Z,100120.66
2018-07-14T18:12:53.557Z,100123.46
2018-07-14T18:15:20.438Z,100120.34
2018-07-14T18:17:47.328Z,100110.12
2018-07-14T18:20:14.220Z,100111.26
2018-07-14T18:22:41.116Z,100107.30
2018-07-14T18:25:08.009Z,100106.27
2018-07-14T18:27:34.911Z,100100.91
2018-07-14T18:30:01.847Z,100099.35
2018-07-14T18:32:28.762Z,100108.23
2018-07-14T18:34:55.655Z,100111.81
2018-07-14T18:37:22.567Z,100116.09
2018-07-14T18:39:49.489Z,100111.55
2018-07-14T18:42:16.384Z,100111.73
2018-07-14T18:44:43.318Z,100119.31
2018-07-14T18:47:10.246Z,100122.86
2018-07-14T18:49:37.170Z,100113.98
2018-07-14T18:52:07.152Z,100110.23
2018-07-14T18:54:34.113Z,100115.02
2018-07-14T18:57:01.016Z,100121.11
2018-07-14T18:59:27.926Z,100123.44
2018-07-14T19:01:54.809Z,100121.46
2018-07-14T19:04:21.735Z,100129.29
2018-07-14T19:06:48.643Z,100128.37
2018-07-14T19:09:15.631Z,100133.92
2018-07-14T19:11:42.481Z,100135.80
2018-07-14T19:14:09.409Z,100137.78
2018-07-14T19:16:36.344Z,100139.53
2018-07-14T19:19:03.299Z,100135.54
2018-07-14T19:21:30.195Z,100138.48
2018-07-14T19:23:57.081Z,100135.27
2018-07-14T19:26:24.039Z,100146.30
2018-07-14T19:28:50.881Z,100140.40
2018-07-14T19:31:17.774Z,100142.50
2018-07-14T19:33:44.781Z,100147.77
2018-07-14T19:36:13.860Z,100148.80
2018-07-14T19:38:40.910Z,100152.58
2018-07-14T19:41:07.753Z,100158.73
2018-07-14T19:43:34.711Z,100156.88
2018-07-14T19:46:01.899Z,100165.70
2018-07-14T19:48:28.818Z,100169.03
2018-07-14T19:50:55.729Z,100167.33
2018-07-14T19:53:22.629Z,100171.52
2018-07-14T19:55:49.616Z,100173.90
2018-07-14T19:58:16.526Z,100177.02
2018-07-14T20:00:43.478Z,100177.31
2018-07-14T20:03:10.395Z,100178.36
2018-07-14T20:05:37.287Z,100179.45
2018-07-14T20:08:04.239Z,100180.11
2018-07-14T20:10:31.115Z,100177.25
2018-07-14T20:12:58.004Z,100184.39
2018-07-14T20:15:24.946Z,100175.54
2018-07-14T20:17:51.925Z,100185.61
2018-07-14T20:20:18.804Z,100186.88
2018-07-14T20:22:45.695Z,100184.96
2018-07-14T20:25:12.621Z,100197.63
2018-07-14T20:27:39.520Z,100192.73
2018-07-14T20:30:06.514Z,100191.47
2018-07-14T20:32:33.383Z,100193.27
2018-07-14T20:35:00.350Z,100189.11
2018-07-14T20:37:27.186Z,100194.60
2018-07-14T20:39:55.128Z,100200.81
2018-07-14T20:42:22.051Z,100199.84
2018-07-14T20:44:49.004Z,100199.89
2018-07-14T20:47:15.910Z,100195.98
2018-07-14T20:49:42.800Z,100201.22
2018-07-14T20:52:09.705Z,100198.05
2018-07-14T20:54:36.624Z,100193.91
2018-07-14T20:57:04.525Z,100197.30
2018-07-14T20:59:31.493Z,100195.42
2018-07-14T21:01:58.400Z,100194.47
2018-07-14T21:04:25.545Z,100204.05
2018-07-14T21:06:52.472Z,100202.14
2018-07-14T21:09:19.356Z,100205.31
2018-07-14T21:11:46.311Z,100205.89
2018-07-14T21:14:13.224Z,100209.13
2018-07-14T21:16:40.153Z,100207.14
2018-07-14T21:19:07.065Z,100204.36
2018-07-14T21:21:33.951Z,100219.96
2018-07-14T21:24:01.776Z,100208.45
2018-07-14T21:26:28.696Z,100216.84
2018-07-14T21:28:55.574Z,100219.70
2018-07-14T21:31:22.467Z,100215.59
2018-07-14T21:33:49.397Z,100218.50
2018-07-14T21:36:16.288Z,100211.62
2018-07-14T21:38:43.195Z,100218.22
2018-07-14T21:41:10.128Z,100216.77
2018-07-14T21:43:36.998Z,100219.95
2018-07-14T21:46:04.042Z,100221.91
2018-07-14T21:48:30.952Z,100221.56
2018-07-14T21:50:57.858Z,100224.99
2018-07-14T21:53:24.746Z,100222.78
2018-07-14T21:55:51.683Z,100228.66
2018-07-14T21:58:21.577Z,100228.80
2018-07-14T22:00:54.276Z,100225.75
2018-07-14T22:03:21.157Z,100225.66
2018-07-14T22:05:51.541Z,100217.86
2018-07-14T22:08:18.478Z,100218.65
2018-07-14T22:10:45.348Z,100226.08
2018-07-14T22:13:12.244Z,100227.14
2018-07-14T22:15:39.151Z,100224.97
2018-07-14T22:18:06.015Z,100221.30
2018-07-14T22:20:32.911Z,100223.90
2018-07-14T22:22:59.811Z,100228.16
2018-07-14T22:25:26.712Z,100228.69
2018-07-14T22:27:53.621Z,100228.59
2018-07-14T22:30:20.524Z,100232.77
2018-07-14T22:32:47.407Z,100233.75
2018-07-14T22:35:14.304Z,100242.12
2018-07-14T22:37:41.200Z,100238.08
2018-07-14T22:40:08.111Z,100249.48
2018-07-14T22:42:35.009Z,100251.11
2018-07-14T22:45:01.903Z,100249.95
2018-07-14T22:47:28.803Z,100249.78
2018-07-14T22:49:55.689Z,100251.28
2018-07-14T22:52:22.580Z,100248.86
2018-07-14T22:54:49.475Z,100254.17
2018-07-14T22:57:16.444Z,100249.31
2018-07-14T22:59:43.335Z,100243.13
2018-07-14T23:02:10.207Z,100245.14
2018-07-14T23:04:37.120Z,100244.61
2018-07-14T23:07:04.064Z,100242.42
2018-07-14T23:09:30.957Z,100244.66
2018-07-14T23:11:57.885Z,100237.10
2018-07-14T23:14:24.778Z,100236.18
2018-07-14T23:16:51.670Z,100235.80
2018-07-14T23:19:18.548Z,100233.95
2018-07-14T23:21:45.476Z,100241.74
2018-07-14T23:24:12.445Z,100235.05
2018-07-14T23:26:39.357Z,100233.84
2018-07-14T23:29:06.237Z,100236.63
2018-07-14T23:31:33.130Z,100234.80
2018-07-14T23:34:00.058Z,100236.42
2018-07-14T23:36:26.964Z,100231.62
2018-07-14T23:38:53.879Z,100233.75
2018-07-14T23:41:24.547Z,100228.84
2018-07-14T23:43:51.437Z,100231.75
2018-07-14T23:46:18.329Z,100231.39
2018-07-14T23:48:45.228Z,100223.72
2018-07-14T23:51:12.857Z,100222.83
2018-07-14T23:53:39.770Z,100226.96
2018-07-14T23:56:10.306Z,100222.39
2018-07-14T23:58:37.164Z,100222.83
